Time;durP1;ratioP1;P1;durP2;ratioP2;P2;SDS_P1;SDS_P2;PMS_P1;PMS_P2;Temp;Humidity;BMP_temperature;BMP_pressure;BME280_temperature;BME280_humidity;BME280_pressure;Samples;Min_cycle;Max_cycle;Signal;HPM_P1;HPM_P2
2021/06/20 00:00:57;;;;;;;25.90;23.67;;;;;;;23.52;71.38;100193.50;4904289;28;128502;-72
2021/06/20 00:03:24;;;;;;;26.05;23.75;;;;;;;23.64;70.80;100185.09;4904982;28;126685;-72
2021/06/20 00:05:59;;;;;;;25.05;22.70;;;;;;;23.45;71.15;100190.59;4889145;28;115319;-72
2021/06/20 00:08:26;;;;;;;26.00;23.52;;;;;;;23.42;71.68;100177.56;4890177;28;98312;-71
2021/06/20 00:10:52;;;;;;;25.75;23.55;;;;;;;23.05;73.00;100185.41;4905189;28;98724;-72
2021/06/20 00:13:19;;;;;;;27.10;24.60;;;;;;;22.77;73.47;100180.78;4925204;28;97967;-71
2021/06/20 00:15:45;;;;;;;26.13;24.00;;;;;;;22.60;74.11;100184.72;4920806;28;97861;-72
2021/06/20 00:18:11;;;;;;;25.80;23.60;;;;;;;22.88;73.50;100181.84;4937911;28;98344;-72
2021/06/20 00:20:40;;;;;;;26.63;24.27;;;;;;;22.84;73.40;100182.94;4942325;28;128049;-73
2021/06/20 00:23:06;;;;;;;26.67;24.48;;;;;;;22.88;73.28;100179.09;4942645;28;105189;-71
2021/06/20 00:25:33;;;;;;;26.52;24.33;;;;;;;22.76;73.41;100174.50;4941676;28;97916;-73
2021/06/20 00:27:59;;;;;;;26.90;24.80;;;;;;;22.72;73.12;100161.84;4941990;28;97777;-72
2021/06/20 00:30:27;;;;;;;27.95;25.55;;;;;;;22.66;73.71;100166.00;4941721;28;117745;-72
2021/06/20 00:32:54;;;;;;;27.83;25.42;;;;;;;22.42;74.21;100167.78;4942272;28;116709;-72
2021/06/20 00:35:21;;;;;;;27.25;24.88;;;;;;;22.33;74.95;100174.63;4941705;28;98072;-72
2021/06/20 00:37:47;;;;;;;28.70;26.23;;;;;;;22.72;73.20;100164.59;4941208;28;127699;-73
2021/06/20 00:40:15;;;;;;;28.40;25.90;;;;;;;22.79;72.92;100165.56;4939938;28;99107;-72
2021/06/20 00:42:41;;;;;;;27.27;24.88;;;;;;;22.76;72.89;100165.47;4943209;28;98004;-72
2021/06/20 00:45:08;;;;;;;27.27;24.92;;;;;;;22.53;73.52;100166.09;4943173;28;99909;-72
2021/06/20 00:47:34;;;;;;;29.65;27.15;;;;;;;22.46;73.56;100162.38;4941794;28;97713;-72
2021/06/20 00:50:00;;;;;;;29.23;26.75;;;;;;;22.51;73.16;100153.88;4941517;28;128903;-73
2021/06/20 00:52:26;;;;;;;30.08;27.58;;;;;;;22.57;73.18;100160.72;4942253;28;98039;-72
2021/06/20 00:54:52;;;;;;;31.33;28.52;;;;;;;22.42;73.61;100167.00;4903573;28;116464;-72
2021/06/20 00:57:22;;;;;;;30.17;27.52;;;;;;;22.65;73.04;100150.69;4938874;28;124840;-72
2021/06/20 00:59:51;;;;;;;29.23;26.48;;;;;;;22.52;73.63;100147.25;4924482;28;98231;-72
2021/06/20 01:02:19;;;;;;;30.02;27.33;;;;;;;22.18;75.04;100143.25;4923932;28;97913;-72
2021/06/20 01:04:49;;;;;;;31.05;28.27;;;;;;;22.22;74.86;100144.13;4941247;28;98323;-72
2021/06/20 01:07:20;;;;;;;30.55;27.77;;;;;;;22.26;74.55;100142.28;4942377;28;98032;-72
2021/06/20 01:09:46;;;;;;;29.67;26.90;;;;;;;22.35;74.32;100139.34;4939710;28;115708;-72
2021/06/20 01:12:13;;;;;;;31.83;28.70;;;;;;;22.17;74.84;100128.75;4941496;28;113033;-72
2021/06/20 01:14:40;;;;;;;32.15;29.27;;;;;;;21.99;75.54;100121.94;4941690;28;97765;-72
2021/06/20 01:17:06;;;;;;;30.60;27.88;;;;;;;21.91;76.02;100118.22;4904520;28;98031;-72
2021/06/20 01:19:33;;;;;;;30.17;27.63;;;;;;;21.70;76.41;100123.16;4939303;28;126256;-72
2021/06/20 01:22:31;;;;;;;30.10;27.60;;;;;;;21.93;76.02;100120.59;4904605;28;109792;-72
2021/06/20 01:25:05;;;;;;;30.35;27.52;;;;;;;22.09;75.30;100115.16;4922672;28;97936;-72
2021/06/20 01:27:39;;;;;;;30.95;28.35;;;;;;;21.71;76.47;100114.56;4921821;28;110620;-72
2021/06/20 01:30:08;;;;;;;31.67;28.88;;;;;;;21.77;76.05;100102.19;4921489;28;99741;-72
2021/06/20 01:32:34;;;;;;;30.60;27.77;;;;;;;21.94;75.71;100092.03;4921504;28;98664;-72
2021/06/20 01:35:00;;;;;;;30.33;27.52;;;;;;;21.87;75.56;100087.16;4921610;28;117282;-72
2021/06/20 01:37:27;;;;;;;29.73;27.33;;;;;;;21.80;75.94;100081.47;4933553;28;127158;-72
2021/06/20 01:39:53;;;;;;;29.05;26.75;;;;;;;21.95;75.39;100075.22;4940326;28;126694;-72
2021/06/20 01:42:19;;;;;;;29.35;26.85;;;;;;;22.17;74.22;100070.31;4920973;28;98095;-72
2021/06/20 01:44:59;;;;;;;29.98;27.20;;;;;;;21.86;74.94;100068.31;4939989;28;98158;-72
2021/06/20 01:47:27;;;;;;;29.88;27.27;;;;;;;21.81;75.27;100064.69;4942313;28;98491;-72
2021/06/20 01:49:55;;;;;;;29.08;26.63;;;;;;;21.39;76.53;100052.56;4939383;28;98702;-72
2021/06/20 01:52:22;;;;;;;29.50;27.00;;;;;;;21.55;76.27;100048.72;4938649;28;119628;-72
2021/06/20 01:54:52;;;;;;;30.05;27.35;;;;;;;21.61;75.94;100059.41;4941474;28;97965;-71
2021/06/20 01:57:24;;;;;;;29.85;27.27;;;;;;;21.28;76.90;100054.97;4941359;28;98536;-72
2021/06/20 01:59:55;;;;;;;29.70;27.10;;;;;;;21.54;76.03;100057.31;4939611;28;98931;-72
2021/06/20 02:02:22;;;;;;;30.33;27.75;;;;;;;21.72;75.23;100055.81;4940376;28;105561;-72
2021/06/20 02:04:49;;;;;;;30.58;27.77;;;;;;;21.46;75.98;100067.28;4934366;28;98071;-72
2021/06/20 02:07:15;;;;;;;29.60;27.10;;;;;;;21.67;75.82;100060.78;4904638;28;99303;-72
2021/06/20 02:09:42;;;;;;;28.50;26.13;;;;;;;21.81;75.15;100069.34;4921723;28;98670;-72
2021/06/20 02:12:09;;;;;;;28.08;25.75;;;;;;;21.87;74.84;100065.22;4921354;28;98512;-72
2021/06/20 02:14:36;;;;;;;28.17;25.77;;;;;;;22.02;73.99;100061.69;4922099;28;97782;-72
2021/06/20 02:17:24;;;;;;;29.08;26.45;;;;;;;21.96;74.12;100059.53;4926362;28;98336;-72
2021/06/20 02:19:55;;;;;;;28.15;25.85;;;;;;;22.05;73.76;100065.69;4917591;28;97841;-72
2021/06/20 02:22:21;;;;;;;28.95;26.58;;;;;;;21.57;75.24;100075.78;4926458;28;98210;-72
2021/06/20 02:24:47;;;;;;;28.58;26.27;;;;;;;21.71;74.79;100069.88;4928488;28;97882;-72
2021/06/20 02:27:14;;;;;;;31.05;28.38;;;;;;;21.77;74.66;100073.94;4926681;28;128648;-72
2021/06/20 02:29:41;;;;;;;29.30;26.65;;;;;;;22.00;73.88;100079.63;4948189;28;98614;-72
2021/06/20 02:32:08;;;;;;;30.60;28.08;;;;;;;22.02;73.59;100074.59;4947106;28;97678;-72
2021/06/20 02:34:34;;;;;;;34.42;31.40;;;;;;;21.87;74.32;100080.88;4930998;28;97812;-72
2021/06/20 02:37:00;;;;;;;34.45;31.38;;;;;;;21.93;73.91;100077.53;4927247;28;113075;-72
2021/06/20 02:39:27;;;;;;;35.30;32.10;;;;;;;22.01;73.51;100073.81;4925942;28;127491;-72
2021/06/20 02:41:53;;;;;;;33.08;30.15;;;;;;;21.81;74.49;100077.56;4927653;28;112952;-72
2021/06/20 02:44:19;;;;;;;29.88;27.38;;;;;;;21.21;76.04;100084.91;4908991;28;117123;-72
2021/06/20 02:46:45;;;;;;;32.35;29.60;;;;;;;21.47;75.18;100087.25;4892654;28;117787;-72
2021/06/20 02:49:11;;;;;;;30.77;28.08;;;;;;;21.50;75.08;100084.63;4877233;28;98041;-72
2021/06/20 02:51:40;;;;;;;33.13;30.27;;;;;;;21.43;75.65;100078.16;4892930;28;113829;-71
2021/06/20 02:54:06;;;;;;;32.25;29.60;;;;;;;21.50;75.03;100087.38;4927177;28;98086;-72
2021/06/20 02:56:32;;;;;;;30.70;28.20;;;;;;;21.60;74.43;100091.53;4909384;28;127832;-72
2021/06/20 02:58:58;;;;;;;33.30;30.30;;;;;;;21.80;73.70;100096.00;4946665;28;104541;-72
2021/06/20 03:01:24;;;;;;;32.45;29.65;;;;;;;21.70;74.06;100104.75;4910617;28;99982;-72
2021/06/20 03:03:50;;;;;;;30.35;27.75;;;;;;;21.87;73.71;100102.81;4946614;28;116663;-72
2021/06/20 03:06:17;;;;;;;31.88;29.15;;;;;;;21.80;73.93;100106.16;4946870;28;126967;-72
2021/06/20 03:08:43;;;;;;;31.55;28.77;;;;;;;21.93;73.49;100102.22;4946668;28;127920;-72
2021/06/20 03:11:09;;;;;;;31.35;28.75;;;;;;;21.91;73.54;100104.50;4946096;28;125407;-72
2021/06/20 03:13:35;;;;;;;31.35;28.67;;;;;;;22.05;72.96;100107.63;4946043;28;98142;-72
2021/06/20 03:16:01;;;;;;;29.88;27.33;;;;;;;22.09;72.76;100102.22;4946035;28;128001;-72
2021/06/20 03:18:27;;;;;;;29.67;27.17;;;;;;;22.09;72.69;100117.91;4946398;28;113830;-72
2021/06/20 03:20:53;;;;;;;28.10;25.60;;;;;;;22.09;72.58;100126.13;4946116;28;127579;-72
2021/06/20 03:23:19;;;;;;;27.30;24.90;;;;;;;22.02;72.50;100137.72;4928897;28;98029;-72
2021/06/20 03:25:45;;;;;;;28.80;26.45;;;;;;;21.78;73.28;100133.16;4945413;28;102637;-72
2021/06/20 03:28:11;;;;;;;30.98;28.30;;;;;;;21.38;74.87;100123.06;4923809;28;128793;-72
2021/06/20 03:30:37;;;;;;;31.15;28.48;;;;;;;21.62;74.40;100118.63;4930457;28;98163;-72
2021/06/20 03:33:04;;;;;;;30.17;27.42;;;;;;;21.84;73.64;100120.78;4906014;28;98122;-72
2021/06/20 03:35:30;;;;;;;29.60;27.10;;;;;;;21.63;74.17;100118.25;4905084;28;109900;-72
2021/06/20 03:37:56;;;;;;;29.40;26.67;;;;;;;21.56;74.61;100115.31;4922835;28;128410;-72
2021/06/20 03:40:22;;;;;;;30.17;27.67;;;;;;;21.88;73.45;100112.63;4904351;28;127307;-73
2021/06/20 03:42:48;;;;;;;29.95;27.50;;;;;;;22.07;72.77;100107.25;4923193;28;116429;-72
2021/06/20 03:45:14;;;;;;;29.27;26.88;;;;;;;22.21;72.27;100093.16;4920355;28;117366;-72
2021/06/20 03:47:40;;;;;;;28.90;26.33;;;;;;;22.27;71.88;100091.72;4901198;28;119683;-72
2021/06/20 03:50:08;;;;;;;28.00;25.60;;;;;;;22.18;72.50;100086.41;4923921;28;126794;-72
2021/06/20 03:52:34;;;;;;;28.52;26.17;;;;;;;22.13;72.40;100080.38;4893091;28;97891;-72
2021/06/20 03:55:00;;;;;;;28.58;26.08;;;;;;;21.92;73.25;100084.16;4925007;28;109501;-72
2021/06/20 03:57:26;;;;;;;28.52;26.05;;;;;;;22.01;72.80;100073.81;4944372;28;98473;-72
2021/06/20 03:59:52;;;;;;;29.17;26.48;;;;;;;22.15;72.33;100078.09;4938972;28;126335;-72
2021/06/20 04:02:19;;;;;;;28.15;25.80;;;;;;;22.05;71.79;100079.41;4943528;28;97825;-72
2021/06/20 04:04:45;;;;;;;29.08;26.52;;;;;;;22.04;72.37;100077.78;4942334;28;127342;-72
2021/06/20 04:07:12;;;;;;;27.42;25.17;;;;;;;22.16;72.16;100065.94;4943060;28;98914;-72
2021/06/20 04:09:42;;;;;;;27.55;25.35;;;;;;;21.95;72.51;100052.47;4942709;28;97809;-72
2021/06/20 04:12:13;;;;;;;27.50;25.10;;;;;;;22.22;71.61;100045.34;4943688;28;98135;-72
2021/06/20 04:14:41;;;;;;;26.70;24.45;;;;;;;22.20;71.31;100040.19;4943248;28;98189;-72
2021/06/20 04:17:07;;;;;;;25.98;23.77;;;;;;;22.27;71.11;100039.56;4940395;28;104149;-72
2021/06/20 04:19:33;;;;;;;26.20;23.90;;;;;;;22.37;70.49;100039.03;4923942;28;126408;-72
2021/06/20 04:21:59;;;;;;;24.48;22.42;;;;;;;22.42;70.27;100036.00;4940378;28;111836;-72
2021/06/20 04:24:25;;;;;;;25.15;22.95;;;;;;;22.34;70.52;100030.72;4907952;28;122083;-72
2021/06/20 04:26:51;;;;;;;23.75;21.67;;;;;;;22.65;69.25;100033.38;4933365;28;122354;-72
2021/06/20 04:29:17;;;;;;;22.70;20.80;;;;;;;22.94;68.59;100036.75;4919975;28;127747;-72
2021/06/20 04:31:44;;;;;;;22.70;20.65;;;;;;;23.03;67.78;100035.41;4905587;28;97837;-72
2021/06/20 04:34:10;;;;;;;21.75;20.05;;;;;;;23.14;67.07;100043.06;4904383;28;98964;-72
2021/06/20 04:36:36;;;;;;;21.63;19.73;;;;;;;23.02;66.69;100044.00;4920938;28;98476;-72
2021/06/20 04:39:06;;;;;;;21.45;19.60;;;;;;;23.00;66.74;100049.06;4904368;28;99783;-72
2021/06/20 04:41:33;;;;;;;22.45;20.48;;;;;;;22.82;68.08;100047.84;4922730;28;98005;-72
2021/06/20 04:44:02;;;;;;;21.35;19.45;;;;;;;23.04;66.87;100044.44;4920420;28;98032;-73
2021/06/20 04:46:34;;;;;;;21.88;20.08;;;;;;;23.23;66.62;100038.16;4921279;28;98611;-72
2021/06/20 04:49:10;;;;;;;20.75;18.95;;;;;;;23.44;66.28;100037.75;4905033;28;98032;-72
2021/06/20 04:51:40;;;;;;;21.30;19.55;;;;;;;23.35;66.85;100039.94;4906645;28;97851;-73
2021/06/20 04:54:10;;;;;;;23.05;20.98;;;;;;;23.27;66.67;100048.06;4922158;28;97714;-72
2021/06/20 04:56:37;;;;;;;22.77;20.75;;;;;;;23.44;66.65;100055.06;4940170;28;98524;-72
2021/06/20 04:59:04;;;;;;;21.70;19.83;;;;;;;23.48;66.39;100050.41;4941644;28;100686;-72
2021/06/20 05:01:30;;;;;;;22.67;20.77;;;;;;;23.76;66.21;100052.13;4940741;28;107840;-73
2021/06/20 05:03:56;;;;;;;21.95;20.15;;;;;;;23.98;64.96;100051.34;4940857;28;128078;-73
2021/06/20 05:06:23;;;;;;;20.63;19.02;;;;;;;23.99;65.24;100049.38;4942311;28;97814;-73
2021/06/20 05:08:49;;;;;;;20.45;18.80;;;;;;;24.52;64.30;100049.44;4941166;28;126373;-73
2021/06/20 05:11:15;;;;;;;20.17;18.48;;;;;;;24.72;63.47;100047.38;4923127;28;108784;-73
2021/06/20 05:13:41;;;;;;;20.75;18.95;;;;;;;24.85;61.84;100047.94;4940278;28;119297;-73
2021/06/20 05:16:07;;;;;;;19.33;17.83;;;;;;;25.08;61.47;100045.88;4940655;28;128895;-73
2021/06/20 05:18:34;;;;;;;17.73;16.33;;;;;;;24.83;60.52;100058.53;4938427;28;97947;-73
2021/06/20 05:21:00;;;;;;;18.67;17.13;;;;;;;25.28;60.77;100054.00;4937117;28;98068;-73
2021/06/20 05:23:26;;;;;;;18.15;16.73;;;;;;;25.25;60.01;100052.00;4938639;28;116598;-73
2021/06/20 05:25:52;;;;;;;17.17;15.48;;;;;;;25.48;60.16;100055.41;4937551;28;128053;-73
2021/06/20 05:28:18;;;;;;;17.77;16.38;;;;;;;25.69;59.44;100041.81;4917776;28;100693;-73
2021/06/20 05:30:45;;;;;;;16.98;15.60;;;;;;;25.61;58.10;100059.47;4936088;28;104337;-73
2021/06/20 05:33:16;;;;;;;16.92;15.60;;;;;;;25.87;58.90;100064.13;4920512;28;98432;-74
2021/06/20 05:35:42;;;;;;;16.42;14.90;;;;;;;25.96;58.12;100066.56;4938059;28;115238;-73
2021/06/20 05:38:08;;;;;;;15.32;13.85;;;;;;;26.05;58.35;100066.22;4937795;28;113318;-75
2021/06/20 05:40:36;;;;;;;14.98;13.63;;;;;;;26.09;58.46;100073.34;4936113;28;98059;-83
2021/06/20 05:43:02;;;;;;;14.38;13.18;;;;;;;26.24;56.26;100077.03;4902426;28;98078;-80
2021/06/20 05:45:28;;;;;;;13.48;12.18;;;;;;;26.28;57.01;100079.81;4936373;28;114879;-82
2021/06/20 05:47:54;;;;;;;12.95;11.77;;;;;;;26.73;54.94;100081.38;4899817;28;99129;-83
2021/06/20 05:50:20;;;;;;;12.13;11.23;;;;;;;27.23;54.12;100087.16;4887517;28;98042;-79
2021/06/20 05:52:46;;;;;;;11.02;10.23;;;;;;;27.61;51.83;100085.69;4935849;28;128304;-79
2021/06/20 05:55:12;;;;;;;10.45;9.48;;;;;;;28.85;48.12;100083.38;4920108;28;98722;-81
2021/06/20 05:57:38;;;;;;;10.00;9.30;;;;;;;29.71;45.15;100089.38;4919117;28;110556;-78
2021/06/20 06:00:06;;;;;;;9.90;9.02;;;;;;;30.75;44.38;100099.66;4939154;28;97809;-81
2021/06/20 06:02:32;;;;;;;9.68;8.98;;;;;;;31.92;39.71;100105.75;4887872;28;101145;-82
2021/06/20 06:04:58;;;;;;;9.65;8.85;;;;;;;31.81;40.14;100112.66;4901062;28;127236;-82
2021/06/20 06:07:24;;;;;;;8.60;7.90;;;;;;;31.55;39.38;100106.66;4894745;28;127824;-82
2021/06/20 06:09:50;;;;;;;8.90;8.07;;;;;;;31.17;40.92;100108.72;4918974;28;117275;-82
2021/06/20 06:12:21;;;;;;;8.75;7.85;;;;;;;31.88;40.16;100091.09;4919174;28;127367;-83
2021/06/20 06:14:54;;;;;;;8.55;7.80;;;;;;;31.75;40.65;100093.66;4941524;28;98377;-82
2021/06/20 06:17:24;;;;;;;8.27;7.43;;;;;;;31.15;40.21;100088.88;4939918;28;98066;-78
2021/06/20 06:19:50;;;;;;;7.82;7.13;;;;;;;31.50;41.61;100079.28;4937282;28;97952;-78
2021/06/20 06:22:18;;;;;;;9.10;7.93;;;;;;;33.71;37.32;100083.63;4916924;28;98340;-78
2021/06/20 06:24:45;;;;;;;7.30;6.70;;;;;;;33.37;35.56;100080.41;4936721;28;99260;-80
2021/06/20 06:27:12;;;;;;;7.07;6.47;;;;;;;33.67;35.67;100079.34;4919562;28;99634;-78
2021/06/20 06:29:38;;;;;;;6.30;5.80;;;;;;;33.00;35.11;100071.22;4936027;28;98034;-78
2021/06/20 06:32:08;;;;;;;6.13;5.63;;;;;;;33.05;36.33;100064.34;4938489;28;100740;-80
2021/06/20 06:34:34;;;;;;;6.43;5.80;;;;;;;33.66;34.29;100063.81;4920387;28;98361;-78
2021/06/20 06:37:01;;;;;;;6.15;5.68;;;;;;;33.32;35.89;100050.19;4937194;28;116169;-78
2021/06/20 06:39:27;;;;;;;6.22;5.60;;;;;;;32.65;37.82;100047.56;4919913;28;98786;-79
2021/06/20 06:41:54;;;;;;;6.85;6.15;;;;;;;32.21;38.23;100046.75;4919323;28;98190;-78
2021/06/20 06:44:20;;;;;;;6.60;5.97;;;;;;;31.81;40.04;100049.38;4918170;28;104335;-79
2021/06/20 06:46:46;;;;;;;6.05;5.57;;;;;;;31.36;39.34;100051.63;4919605;28;112401;-79
2021/06/20 06:49:12;;;;;;;6.07;5.47;;;;;;;30.86;40.25;100050.28;4919257;28;97984;-78
2021/06/20 06:51:38;;;;;;;7.00;5.95;;;;;;;30.82;40.39;100051.53;4937886;28;98560;-79
2021/06/20 06:54:05;;;;;;;6.47;5.88;;;;;;;30.84;41.88;100054.66;4917741;28;127818;-78
2021/06/20 06:56:31;;;;;;;6.50;5.90;;;;;;;31.17;41.10;100053.84;4917944;28;128014;-78
2021/06/20 06:58:57;;;;;;;6.93;5.88;;;;;;;31.84;39.64;100051.31;4934315;28;116516;-78
2021/06/20 07:01:23;;;;;;;6.10;5.60;;;;;;;32.07;39.43;100047.81;4899772;28;100515;-77
2021/06/20 07:03:49;;;;;;;6.18;5.57;;;;;;;31.06;40.14;100044.84;4937663;28;128071;-77
2021/06/20 07:06:16;;;;;;;5.70;5.20;;;;;;;32.01;37.94;100041.13;4905815;28;127807;-75
2021/06/20 07:08:42;;;;;;;5.75;5.13;;;;;;;31.83;36.96;100029.44;4939392;28;116522;-76
2021/06/20 07:11:08;;;;;;;5.93;5.30;;;;;;;31.93;37.35;100039.66;4938340;28;127695;-77
2021/06/20 07:13:34;;;;;;;5.65;5.15;;;;;;;32.46;36.19;100026.81;4902876;28;127024;-76
2021/06/20 07:16:00;;;;;;;7.03;5.10;;;;;;;31.98;38.14;100037.19;4921291;28;127487;-76
2021/06/20 07:18:26;;;;;;;5.53;5.03;;;;;;;33.05;36.68;100039.22;4904977;28;118557;-76
2021/06/20 07:20:52;;;;;;;5.72;5.07;;;;;;;32.92;37.32;100037.06;4915685;28;98856;-77
2021/06/20 07:23:18;;;;;;;6.05;5.50;;;;;;;32.29;37.43;100037.06;4904232;28;108672;-74
2021/06/20 07:25:44;;;;;;;6.30;5.70;;;;;;;31.94;38.30;100036.44;4918728;28;99228;-77
2021/06/20 07:28:10;;;;;;;5.72;5.07;;;;;;;32.06;37.78;100031.50;4940119;28;118438;-75
2021/06/20 07:30:36;;;;;;;5.88;5.25;;;;;;;32.06;37.63;100034.28;4902043;28;122596;-75
2021/06/20 07:33:03;;;;;;;5.72;5.22;;;;;;;31.68;36.62;100042.84;4917721;28;128038;-73
2021/06/20 07:35:29;;;;;;;5.43;4.93;;;;;;;31.97;37.25;100037.63;4940738;28;98380;-75
2021/06/20 07:37:55;;;;;;;6.07;5.18;;;;;;;32.15;38.56;100043.69;4937966;28;115343;-75
2021/06/20 07:40:21;;;;;;;5.55;5.07;;;;;;;32.56;36.79;100031.41;4920880;28;128940;-73
2021/06/20 07:42:47;;;;;;;5.32;4.90;;;;;;;32.22;36.21;100037.19;4938929;28;111508;-72
2021/06/20 07:45:14;;;;;;;6.80;5.30;;;;;;;31.97;37.54;100030.03;4922510;28;98336;-74
2021/06/20 07:47:41;;;;;;;5.40;4.93;;;;;;;31.71;38.46;100026.03;4937572;28;98911;-75
2021/06/20 07:50:09;;;;;;;5.18;4.68;;;;;;;31.64;37.01;100040.09;4935257;28;97774;-72
2021/06/20 07:52:36;;;;;;;5.32;4.82;;;;;;;31.83;36.94;100035.03;4916221;28;110673;-74
2021/06/20 07:55:02;;;;;;;5.53;4.97;;;;;;;31.68;36.92;100032.47;4932445;28;98418;-73
2021/06/20 07:57:28;;;;;;;4.97;4.57;;;;;;;32.00;36.36;100031.97;4932834;28;97912;-74
2021/06/20 07:59:55;;;;;;;5.22;4.72;;;;;;;32.70;34.66;100035.94;4910917;28;127523;-76
2021/06/20 08:02:21;;;;;;;5.30;4.90;;;;;;;33.52;33.61;100039.00;4937353;28;98798;-77
2021/06/20 08:04:47;;;;;;;5.32;4.82;;;;;;;32.66;34.20;100040.75;4905292;28;100349;-78
2021/06/20 08:07:15;;;;;;;4.85;4.45;;;;;;;32.06;36.11;100035.06;4929395;28;98170;-76
2021/06/20 08:09:41;;;;;;;5.20;4.70;;;;;;;33.04;33.11;100040.44;4932198;28;112492;-76
2021/06/20 08:12:08;;;;;;;5.00;4.60;;;;;;;33.88;31.77;100036.94;4929273;28;99150;-78
2021/06/20 08:14:35;;;;;;;4.90;4.40;;;;;;;33.98;31.83;100040.72;4931157;28;98378;-76
2021/06/20 08:17:01;;;;;;;5.25;4.38;;;;;;;34.44;30.41;100036.72;4929224;28;98006;-77
2021/06/20 08:19:27;;;;;;;4.88;4.40;;;;;;;34.58;30.01;100035.56;4917645;28;101802;-78
2021/06/20 08:21:54;;;;;;;5.45;4.75;;;;;;;34.47;30.22;100037.03;4943653;28;114474;-78
2021/06/20 08:24:20;;;;;;;4.88;4.43;;;;;;;34.81;29.57;100040.09;4914460;28;104162;-77
2021/06/20 08:26:46;;;;;;;4.90;4.50;;;;;;;34.86;30.26;100033.97;4931958;28;97960;-77
2021/06/20 08:29:13;;;;;;;5.30;4.78;;;;;;;35.61;28.97;100025.38;4915150;28;117146;-79
2021/06/20 08:31:39;;;;;;;4.97;4.57;;;;;;;35.81;29.05;100034.31;4933185;28;99055;-80
2021/06/20 08:34:08;;;;;;;5.30;4.90;;;;;;;35.17;29.18;100037.09;4930182;28;98671;-80
2021/06/20 08:36:35;;;;;;;6.22;4.85;;;;;;;35.34;30.03;100037.75;4886851;28;98062;-77
2021/06/20 08:39:03;;;;;;;6.90;4.70;;;;;;;35.36;29.64;100035.28;4902269;28;98429;-80
2021/06/20 08:41:30;;;;;;;5.25;4.63;;;;;;;36.04;28.66;100035.97;4918269;28;100459;-77
2021/06/20 08:43:57;;;;;;;5.55;4.88;;;;;;;36.43;27.59;100036.59;4919869;28;107509;-76
2021/06/20 08:46:24;;;;;;;4.60;4.20;;;;;;;36.57;27.42;100036.13;4937230;28;98028;-79
2021/06/20 08:48:51;;;;;;;4.90;4.47;;;;;;;35.06;28.78;100027.44;4915790;28;98419;-77
2021/06/20 08:51:17;;;;;;;5.00;4.60;;;;;;;35.49;28.82;100018.53;4903708;28;99854;-80
2021/06/20 08:53:43;;;;;;;4.78;4.32;;;;;;;35.85;27.80;100025.78;4939364;28;113838;-79
2021/06/20 08:56:09;;;;;;;4.75;4.43;;;;;;;35.55;28.19;100027.16;4937784;28;116476;-76
2021/06/20 08:58:35;;;;;;;5.30;4.80;;;;;;;35.37;28.75;100022.88;4919929;28;129894;-79
2021/06/20 09:01:05;;;;;;;5.53;4.70;;;;;;;35.89;27.86;100021.63;4901482;28;98534;-76
2021/06/20 09:03:45;;;;;;;5.10;4.60;;;;;;;36.60;27.16;100026.03;4904484;28;98215;-79
2021/06/20 09:06:19;;;;;;;4.90;4.43;;;;;;;37.08;27.03;100026.66;4920841;28;98252;-79
2021/06/20 09:08:50;;;;;;;5.32;4.82;;;;;;;36.24;27.88;100029.28;4903803;28;98238;-78
2021/06/20 09:11:39;;;;;;;5.18;4.68;;;;;;;36.10;28.62;100028.53;4937439;28;98469;-79
2021/06/20 09:14:39;;;;;;;6.80;5.10;;;;;;;35.89;28.22;100023.63;4921631;28;107558;-78
2021/06/20 09:17:05;;;;;;;5.80;4.90;;;;;;;35.49;28.84;100021.34;4914432;28;98925;-75
2021/06/20 09:19:32;;;;;;;5.40;4.90;;;;;;;35.96;28.51;100022.59;4903055;28;126838;-79
2021/06/20 09:22:04;;;;;;;5.50;5.00;;;;;;;35.83;28.59;100025.44;4903676;28;98944;-76
2021/06/20 09:24:30;;;;;;;9.50;6.78;;;;;;;35.93;27.93;100018.69;4907533;28;98011;-79
2021/06/20 09:26:58;;;;;;;8.27;7.47;;;;;;;34.96;29.86;100026.50;4918180;28;102500;-74
2021/06/20 09:29:38;;;;;;;8.77;7.13;;;;;;;34.98;30.45;100021.25;4936209;28;116419;-79
2021/06/20 09:32:06;;;;;;;6.07;5.55;;;;;;;33.84;31.63;100002.72;4920020;28;99791;-78
2021/06/20 09:34:49;;;;;;;7.18;6.00;;;;;;;34.43;30.97;100007.19;4938599;28;97867;-76
2021/06/20 09:37:19;;;;;;;7.30;5.70;;;;;;;34.08;32.43;100006.13;4920337;28;98026;-79
2021/06/20 09:39:45;;;;;;;7.20;5.93;;;;;;;34.07;32.46;99998.16;4919889;28;98884;-79
2021/06/20 09:42:14;;;;;;;9.65;6.13;;;;;;;34.09;33.04;99995.72;4937957;28;113141;-79
2021/06/20 09:44:42;;;;;;;8.38;5.78;;;;;;;36.05;29.48;100008.72;4920304;28;98584;-77
2021/06/20 09:47:14;;;;;;;7.57;5.80;;;;;;;36.28;28.52;100004.72;4938687;28;97972;-78
2021/06/20 09:49:41;;;;;;;8.15;5.63;;;;;;;37.29;26.23;99994.13;4936220;28;108201;-78
2021/06/20 09:52:10;;;;;;;11.02;5.70;;;;;;;37.21;27.18;99999.25;4919371;28;98715;-79
2021/06/20 09:54:39;;;;;;;9.32;6.15;;;;;;;36.69;28.27;99991.63;4903101;28;97961;-76
2021/06/20 09:57:16;;;;;;;9.88;5.90;;;;;;;38.56;25.94;99994.84;4936546;28;98008;-80
2021/06/20 09:59:53;;;;;;;10.50;5.80;;;;;;;38.84;26.01;99989.19;4935837;28;98526;-76
2021/06/20 10:02:30;;;;;;;9.75;6.00;;;;;;;38.70;26.71;99987.78;4936004;28;98712;-80
2021/06/20 10:04:56;;;;;;;10.95;6.32;;;;;;;37.79;26.92;99970.41;4937717;28;97921;-75
2021/06/20 10:07:27;;;;;;;15.05;6.50;;;;;;;37.11;27.76;99963.97;4936643;28;106379;-75
2021/06/20 10:09:53;;;;;;;11.63;6.33;;;;;;;37.78;27.99;99980.09;4889192;28;101254;-76
2021/06/20 10:12:19;;;;;;;13.45;5.93;;;;;;;38.45;26.53;99972.03;4937174;28;107876;-79
2021/06/20 10:14:46;;;;;;;15.00;6.53;;;;;;;38.59;26.52;99965.75;4899928;28;99496;-79
2021/06/20 10:17:14;;;;;;;12.73;6.25;;;;;;;38.89;25.66;99966.81;4915304;28;97886;-80
2021/06/20 10:19:41;;;;;;;12.27;6.65;;;;;;;38.62;26.82;99964.81;4904171;28;98504;-77
2021/06/20 10:22:11;;;;;;;14.10;6.30;;;;;;;38.91;26.72;99967.13;4900865;28;98586;-77
2021/06/20 10:24:55;;;;;;;13.48;6.07;;;;;;;39.16;25.63;99967.97;4933451;28;108042;-79
2021/06/20 10:27:44;;;;;;;16.80;6.63;;;;;;;39.96;25.16;99977.69;4920232;28;98015;-80
2021/06/20 10:30:20;;;;;;;15.05;6.10;;;;;;;40.30;24.87;99984.03;4902662;28;98388;-79
2021/06/20 10:32:48;;;;;;;12.68;6.38;;;;;;;39.60;26.16;99970.25;4934990;28;115479;-76
2021/06/20 10:35:17;;;;;;;12.38;6.50;;;;;;;38.15;27.49;99966.09;4935570;28;98615;-79
2021/06/20 10:37:44;;;;;;;13.15;5.93;;;;;;;39.40;26.45;99980.06;4940279;28;97942;-80
2021/06/20 10:40:23;;;;;;;12.60;6.10;;;;;;;39.40;26.02;99977.25;4905123;28;128385;-76
2021/06/20 10:42:51;;;;;;;13.57;6.43;;;;;;;40.04;26.00;99976.06;4938251;28;97997;-79
2021/06/20 10:45:33;;;;;;;13.05;6.18;;;;;;;37.21;28.59;99970.38;4938792;28;98207;-79
2021/06/20 10:48:16;;;;;;;18.27;5.65;;;;;;;37.92;26.18;99973.09;4938725;28;97936;-79
2021/06/20 10:50:51;;;;;;;21.73;6.40;;;;;;;37.36;27.45;99962.94;4918669;28;98673;-77
2021/06/20 10:53:17;;;;;;;13.23;5.75;;;;;;;36.88;27.83;99959.63;4933658;28;99360;-79
2021/06/20 10:55:55;;;;;;;19.63;5.95;;;;;;;35.85;29.23;99973.31;4922952;28;97931;-79
2021/06/20 10:58:32;;;;;;;17.75;5.53;;;;;;;34.81;30.49;99963.78;4940706;28;97877;-78
2021/06/20 11:01:10;;;;;;;20.77;5.78;;;;;;;34.93;30.47;99971.38;4918195;28;98277;-79
2021/06/20 11:03:36;;;;;;;21.27;5.88;;;;;;;36.06;30.13;99968.22;4936203;28;98881;-76
2021/06/20 11:06:08;;;;;;;16.90;5.88;;;;;;;36.48;29.30;99974.34;4937541;28;98350;-76
2021/06/20 11:08:43;;;;;;;20.35;5.90;;;;;;;36.90;29.38;99970.38;4937787;28;97950;-79
2021/06/20 11:11:28;;;;;;;18.25;5.78;;;;;;;38.93;25.04;99972.25;4919970;28;98816;-76
2021/06/20 11:13:57;;;;;;;19.52;5.68;;;;;;;37.57;27.04;99973.34;4950171;28;98713;-76
2021/06/20 11:16:31;;;;;;;19.63;5.10;;;;;;;38.28;27.34;99971.53;4933491;28;97818;-79
2021/06/20 11:19:16;;;;;;;21.20;5.32;;;;;;;36.94;27.70;99968.25;4936312;28;98309;-75